sensor_id;sensor_type;location;lat;lon;timestamp;P1;P2;P0
71794;PMS7003;59641;45.188;5.712;2023-10-31T00:00:28;0.00;0.00;0.00
71794;PMS7003;59641;45.188;5.712;2023-10-31T00:02:53;0.00;0.00;0.00
71794;PMS7003;59641;45.188;5.712;2023-10-31T00:05:18;0.00;0.00;0.00
71794;PMS7003;59641;45.188;5.712;2023-10-31T00:07:44;0.00;0.00;0.00
71794;PMS7003;59641;45.188;5.712;2023-10-31T00:10:09;0.00;0.00;0.00
71794;PMS7003;59641;45.188;5.712;2023-10-31T00:12:35;0.00;0.00;0.00
71794;PMS7003;59641;45.188;5.712;2023-10-31T00:15:00;0.00;0.00;0.00
71794;PMS7003;59641;45.188;5.712;2023-10-31T00:17:25;0.00;0.00;0.00
71794;PMS7003;59641;45.188;5.712;2023-10-31T00:19:51;0.00;0.00;0.00
71794;PMS7003;59641;45.188;5.712;2023-10-31T00:22:16;0.00;0.00;0.00
71794;PMS7003;59641;45.188;5.712;2023-10-31T00:24:42;0.00;0.00;0.00
71794;PMS7003;59641;45.188;5.712;2023-10-31T00:27:08;0.00;0.00;0.00
71794;PMS7003;59641;45.188;5.712;2023-10-31T00:29:33;0.00;0.00;0.00
71794;PMS7003;59641;45.188;5.712;2023-10-31T00:31:58;0.00;0.00;0.00
71794;PMS7003;59641;45.188;5.712;2023-10-31T00:34:23;0.00;0.00;0.00
71794;PMS7003;59641;45.188;5.712;2023-10-31T00:36:49;1.75;0.25;0.00
71794;PMS7003;59641;45.188;5.712;2023-10-31T00:39:15;1.00;0.00;0.00
71794;PMS7003;59641;45.188;5.712;2023-10-31T00:41:43;0.25;0.25;0.00
71794;PMS7003;59641;45.188;5.712;2023-10-31T00:44:10;1.00;1.00;0.00
71794;PMS7003;59641;45.188;5.712;2023-10-31T00:46:36;0.00;0.00;0.00
71794;PMS7003;59641;45.188;5.712;2023-10-31T00:49:01;0.00;0.00;0.00
71794;PMS7003;59641;45.188;5.712;2023-10-31T00:51:26;0.00;0.00;0.00
71794;PMS7003;59641;45.188;5.712;2023-10-31T00:53:52;0.00;0.00;0.00
71794;PMS7003;59641;45.188;5.712;2023-10-31T00:56:17;0.00;0.00;0.00
71794;PMS7003;59641;45.188;5.712;2023-10-31T00:58:42;0.00;0.00;0.00
71794;PMS7003;59641;45.188;5.712;2023-10-31T01:01:08;0.25;0.00;0.00
71794;PMS7003;59641;45.188;5.712;2023-10-31T01:03:33;0.00;0.00;0.00
71794;PMS7003;59641;45.188;5.712;2023-10-31T01:05:58;0.00;0.00;0.00
71794;PMS7003;59641;45.188;5.712;2023-10-31T01:08:24;0.00;0.00;0.00
71794;PMS7003;59641;45.188;5.712;2023-10-31T01:10:50;0.00;0.00;0.00
71794;PMS7003;59641;45.188;5.712;2023-10-31T01:13:15;0.00;0.00;0.00
71794;PMS7003;59641;45.188;5.712;2023-10-31T01:15:40;0.00;0.00;0.00
71794;PMS7003;59641;45.188;5.712;2023-10-31T01:18:06;0.00;0.00;0.00
71794;PMS7003;59641;45.188;5.712;2023-10-31T01:20:31;0.00;0.00;0.00
71794;PMS7003;59641;45.188;5.712;2023-10-31T01:22:56;0.00;0.00;0.00
71794;PMS7003;59641;45.188;5.712;2023-10-31T01:25:22;0.00;0.00;0.00
71794;PMS7003;59641;45.188;5.712;2023-10-31T01:27:47;0.00;0.00;0.00
71794;PMS7003;59641;45.188;5.712;2023-10-31T01:30:12;0.00;0.00;0.00
71794;PMS7003;59641;45.188;5.712;2023-10-31T01:32:38;0.00;0.00;0.00
71794;PMS7003;59641;45.188;5.712;2023-10-31T01:35:04;0.00;0.00;0.00
71794;PMS7003;59641;45.188;5.712;2023-10-31T01:37:29;0.00;0.00;0.00
71794;PMS7003;59641;45.188;5.712;2023-10-31T01:39:55;0.00;0.00;0.00
71794;PMS7003;59641;45.188;5.712;2023-10-31T01:42:20;0.00;0.00;0.00
71794;PMS7003;59641;45.188;5.712;2023-10-31T01:44:45;0.00;0.00;0.00
71794;PMS7003;59641;45.188;5.712;2023-10-31T01:47:11;0.00;0.00;0.00
71794;PMS7003;59641;45.188;5.712;2023-10-31T01:49:36;1.00;0.00;0.00
71794;PMS7003;59641;45.188;5.712;2023-10-31T01:52:04;0.00;0.00;0.00
71794;PMS7003;59641;45.188;5.712;2023-10-31T01:54:32;0.00;0.00;0.00
71794;PMS7003;59641;45.188;5.712;2023-10-31T01:56:58;0.00;0.00;0.00
71794;PMS7003;59641;45.188;5.712;2023-10-31T01:59:25;0.00;0.00;0.00
71794;PMS7003;59641;45.188;5.712;2023-10-31T02:01:52;0.00;0.00;0.00
71794;PMS7003;59641;45.188;5.712;2023-10-31T02:04:17;0.00;0.00;0.00
71794;PMS7003;59641;45.188;5.712;2023-10-31T02:06:43;0.00;0.00;0.00
71794;PMS7003;59641;45.188;5.712;2023-10-31T02:09:08;0.00;0.00;0.00
71794;PMS7003;59641;45.188;5.712;2023-10-31T02:11:34;0.00;0.00;0.00
71794;PMS7003;59641;45.188;5.712;2023-10-31T02:14:00;0.00;0.00;0.00
71794;PMS7003;59641;45.188;5.712;2023-10-31T02:16:26;0.00;0.00;0.00
71794;PMS7003;59641;45.188;5.712;2023-10-31T02:18:51;0.00;0.00;0.00
71794;PMS7003;59641;45.188;5.712;2023-10-31T02:21:17;0.00;0.00;0.00
71794;PMS7003;59641;45.188;5.712;2023-10-31T02:23:55;0.00;0.00;0.00
71794;PMS7003;59641;45.188;5.712;2023-10-31T02:26:27;0.00;0.00;0.00
71794;PMS7003;59641;45.188;5.712;2023-10-31T02:28:56;0.20;0.00;0.00
71794;PMS7003;59641;45.188;5.712;2023-10-31T02:31:21;0.00;0.00;0.00
71794;PMS7003;59641;45.188;5.712;2023-10-31T02:33:47;0.00;0.00;0.00
71794;PMS7003;59641;45.188;5.712;2023-10-31T02:36:12;0.00;0.00;0.00
71794;PMS7003;59641;45.188;5.712;2023-10-31T02:38:37;0.00;0.00;0.00
71794;PMS7003;59641;45.188;5.712;2023-10-31T02:41:03;0.00;0.00;0.00
71794;PMS7003;59641;45.188;5.712;2023-10-31T02:43:28;0.00;0.00;0.00
71794;PMS7003;59641;45.188;5.712;2023-10-31T02:45:53;0.00;0.00;0.00
71794;PMS7003;59641;45.188;5.712;2023-10-31T02:48:19;0.50;0.00;0.00
71794;PMS7003;59641;45.188;5.712;2023-10-31T02:50:45;1.00;0.00;0.00
71794;PMS7003;59641;45.188;5.712;2023-10-31T02:53:10;0.00;0.00;0.00
71794;PMS7003;59641;45.188;5.712;2023-10-31T02:55:36;0.00;0.00;0.00
71794;PMS7003;59641;45.188;5.712;2023-10-31T02:58:02;0.00;0.00;0.00
71794;PMS7003;59641;45.188;5.712;2023-10-31T03:00:27;0.00;0.00;0.00
71794;PMS7003;59641;45.188;5.712;2023-10-31T03:02:52;0.00;0.00;0.00
71794;PMS7003;59641;45.188;5.712;2023-10-31T03:05:18;0.00;0.00;0.00
71794;PMS7003;59641;45.188;5.712;2023-10-31T03:07:43;0.00;0.00;0.00
71794;PMS7003;59641;45.188;5.712;2023-10-31T03:10:10;0.60;0.00;0.00
71794;PMS7003;59641;45.188;5.712;2023-10-31T03:12:35;0.00;0.00;0.00
71794;PMS7003;59641;45.188;5.712;2023-10-31T03:15:01;0.00;0.00;0.00
71794;PMS7003;59641;45.188;5.712;2023-10-31T03:17:28;0.00;0.00;0.00
71794;PMS7003;59641;45.188;5.712;2023-10-31T03:19:54;0.00;0.00;0.00
71794;PMS7003;59641;45.188;5.712;2023-10-31T03:22:19;0.00;0.00;0.00
71794;PMS7003;59641;45.188;5.712;2023-10-31T03:24:45;0.00;0.00;0.00
71794;PMS7003;59641;45.188;5.712;2023-10-31T03:27:10;0.00;0.00;0.00
71794;PMS7003;59641;45.188;5.712;2023-10-31T03:29:35;0.00;0.00;0.00
71794;PMS7003;59641;45.188;5.712;2023-10-31T03:32:00;0.00;0.00;0.00
71794;PMS7003;59641;45.188;5.712;2023-10-31T03:34:26;0.00;0.00;0.00
71794;PMS7003;59641;45.188;5.712;2023-10-31T03:36:51;0.00;0.00;0.00
71794;PMS7003;59641;45.188;5.712;2023-10-31T03:39:16;0.00;0.00;0.00
71794;PMS7003;59641;45.188;5.712;2023-10-31T03:41:42;0.00;0.00;0.00
71794;PMS7003;59641;45.188;5.712;2023-10-31T03:44:07;0.00;0.00;0.00
71794;PMS7003;59641;45.188;5.712;2023-10-31T03:46:33;0.00;0.00;0.00
71794;PMS7003;59641;45.188;5.712;2023-10-31T03:48:58;0.00;0.00;0.00
71794;PMS7003;59641;45.188;5.712;2023-10-31T03:51:23;0.00;0.00;0.00
71794;PMS7003;59641;45.188;5.712;2023-10-31T03:53:49;0.00;0.00;0.00
71794;PMS7003;59641;45.188;5.712;2023-10-31T03:56:14;0.00;0.00;0.00
71794;PMS7003;59641;45.188;5.712;2023-10-31T03:58:40;0.00;0.00;0.00
71794;PMS7003;59641;45.188;5.712;2023-10-31T04:01:07;0.00;0.00;0.00
71794;PMS7003;59641;45.188;5.712;2023-10-31T04:03:32;0.00;0.00;0.00
71794;PMS7003;59641;45.188;5.712;2023-10-31T04:05:57;0.00;0.00;0.00
71794;PMS7003;59641;45.188;5.712;2023-10-31T04:08:23;0.00;0.00;0.00
71794;PMS7003;59641;45.188;5.712;2023-10-31T04:10:48;0.00;0.00;0.00
71794;PMS7003;59641;45.188;5.712;2023-10-31T04:13:13;0.00;0.00;0.00
71794;PMS7003;59641;45.188;5.712;2023-10-31T04:15:39;0.00;0.00;0.00
71794;PMS7003;59641;45.188;5.712;2023-10-31T04:18:04;0.00;0.00;0.00
71794;PMS7003;59641;45.188;5.712;2023-10-31T04:20:29;0.00;0.00;0.00
71794;PMS7003;59641;45.188;5.712;2023-10-31T04:22:55;0.00;0.00;0.00
71794;PMS7003;59641;45.188;5.712;2023-10-31T04:25:20;0.00;0.00;0.00
71794;PMS7003;59641;45.188;5.712;2023-10-31T04:27:45;0.00;0.00;0.00
71794;PMS7003;59641;45.188;5.712;2023-10-31T04:30:11;0.00;0.00;0.00
71794;PMS7003;59641;45.188;5.712;2023-10-31T04:32:36;0.00;0.00;0.00
71794;PMS7003;59641;45.188;5.712;2023-10-31T04:35:02;0.00;0.00;0.00
71794;PMS7003;59641;45.188;5.712;2023-10-31T04:37:27;0.00;0.00;0.00
71794;PMS7003;59641;45.188;5.712;2023-10-31T04:39:52;0.00;0.00;0.00
71794;PMS7003;59641;45.188;5.712;2023-10-31T04:42:18;0.00;0.00;0.00
71794;PMS7003;59641;45.188;5.712;2023-10-31T04:44:45;0.00;0.00;0.00
71794;PMS7003;59641;45.188;5.712;2023-10-31T04:47:10;0.00;0.00;0.00
71794;PMS7003;59641;45.188;5.712;2023-10-31T04:49:36;0.00;0.00;0.00
71794;PMS7003;59641;45.188;5.712;2023-10-31T04:52:01;0.00;0.00;0.00
71794;PMS7003;59641;45.188;5.712;2023-10-31T04:54:27;0.00;0.00;0.00
71794;PMS7003;59641;45.188;5.712;2023-10-31T04:56:52;0.00;0.00;0.00
71794;PMS7003;59641;45.188;5.712;2023-10-31T04:59:17;0.00;0.00;0.00
71794;PMS7003;59641;45.188;5.712;2023-10-31T05:01:48;0.00;0.00;0.00
71794;PMS7003;59641;45.188;5.712;2023-10-31T05:04:14;0.00;0.00;0.00
71794;PMS7003;59641;45.188;5.712;2023-10-31T05:06:40;0.00;0.00;0.00
71794;PMS7003;59641;45.188;5.712;2023-10-31T05:09:05;0.00;0.00;0.00
71794;PMS7003;59641;45.188;5.712;2023-10-31T05:11:31;0.00;0.00;0.00
71794;PMS7003;59641;45.188;5.712;2023-10-31T05:13:56;0.00;0.00;0.00
71794;PMS7003;59641;45.188;5.712;2023-10-31T05:16:21;0.00;0.00;0.00
71794;PMS7003;59641;45.188;5.712;2023-10-31T05:18:47;0.00;0.00;0.00
71794;PMS7003;59641;45.188;5.712;2023-10-31T05:21:12;0.00;0.00;0.00
71794;PMS7003;59641;45.188;5.712;2023-10-31T05:23:37;0.00;0.00;0.00
71794;PMS7003;59641;45.188;5.712;2023-10-31T05:26:05;0.00;0.00;0.00
71794;PMS7003;59641;45.188;5.712;2023-10-31T05:28:30;0.00;0.00;0.00
71794;PMS7003;59641;45.188;5.712;2023-10-31T05:30:56;0.00;0.00;0.00
71794;PMS7003;59641;45.188;5.712;2023-10-31T05:33:21;0.00;0.00;0.00
71794;PMS7003;59641;45.188;5.712;2023-10-31T05:35:48;0.60;0.00;0.00
71794;PMS7003;59641;45.188;5.712;2023-10-31T05:38:13;0.00;0.00;0.00
71794;PMS7003;59641;45.188;5.712;2023-10-31T05:40:38;0.75;0.00;0.00
71794;PMS7003;59641;45.188;5.712;2023-10-31T05:43:04;0.00;0.00;0.00
71794;PMS7003;59641;45.188;5.712;2023-10-31T05:45:29;0.00;0.00;0.00
71794;PMS7003;59641;45.188;5.712;2023-10-31T05:47:55;0.00;0.00;0.00
71794;PMS7003;59641;45.188;5.712;2023-10-31T05:50:21;0.00;0.00;0.00
71794;PMS7003;59641;45.188;5.712;2023-10-31T05:52:46;0.00;0.00;0.00
71794;PMS7003;59641;45.188;5.712;2023-10-31T05:55:12;0.00;0.00;0.00
71794;PMS7003;59641;45.188;5.712;2023-10-31T05:57:38;0.00;0.00;0.00
71794;PMS7003;59641;45.188;5.712;2023-10-31T06:00:03;0.00;0.00;0.00
71794;PMS7003;59641;45.188;5.712;2023-10-31T06:02:28;1.50;0.00;0.00
71794;PMS7003;59641;45.188;5.712;2023-10-31T06:04:54;2.50;0.00;0.00
71794;PMS7003;59641;45.188;5.712;2023-10-31T06:07:20;0.00;0.00;0.00
71794;PMS7003;59641;45.188;5.712;2023-10-31T06:09:45;0.00;0.00;0.00
71794;PMS7003;59641;45.188;5.712;2023-10-31T06:12:10;1.75;0.00;0.00
71794;PMS7003;59641;45.188;5.712;2023-10-31T06:14:36;1.00;0.75;0.00
71794;PMS7003;59641;45.188;5.712;2023-10-31T06:17:02;1.75;1.75;1.00
71794;PMS7003;59641;45.188;5.712;2023-10-31T06:19:27;0.00;0.00;0.00
71794;PMS7003;59641;45.188;5.712;2023-10-31T06:21:53;0.25;0.25;0.00
71794;PMS7003;59641;45.188;5.712;2023-10-31T06:24:18;0.00;0.00;0.00
71794;PMS7003;59641;45.188;5.712;2023-10-31T06:26:43;0.00;0.00;0.00
71794;PMS7003;59641;45.188;5.712;2023-10-31T06:29:09;0.25;0.00;0.00
71794;PMS7003;59641;45.188;5.712;2023-10-31T06:31:34;0.00;0.00;0.00
71794;PMS7003;59641;45.188;5.712;2023-10-31T06:33:59;0.00;0.00;0.00
71794;PMS7003;59641;45.188;5.712;2023-10-31T06:36:24;0.00;0.00;0.00
71794;PMS7003;59641;45.188;5.712;2023-10-31T06:38:50;1.75;1.75;0.75
71794;PMS7003;59641;45.188;5.712;2023-10-31T06:41:15;0.50;0.50;0.00
71794;PMS7003;59641;45.188;5.712;2023-10-31T06:43:41;3.00;1.00;0.25
71794;PMS7003;59641;45.188;5.712;2023-10-31T06:46:06;2.00;1.00;1.00
71794;PMS7003;59641;45.188;5.712;2023-10-31T06:48:31;3.00;2.00;1.75
71794;PMS7003;59641;45.188;5.712;2023-10-31T06:50:57;1.00;1.00;1.00
71794;PMS7003;59641;45.188;5.712;2023-10-31T06:53:22;0.75;0.75;0.75
71794;PMS7003;59641;45.188;5.712;2023-10-31T06:55:48;1.00;1.00;0.00
71794;PMS7003;59641;45.188;5.712;2023-10-31T06:58:13;0.00;0.00;0.00
71794;PMS7003;59641;45.188;5.712;2023-10-31T07:00:39;0.00;0.00;0.00
71794;PMS7003;59641;45.188;5.712;2023-10-31T07:03:04;0.00;0.00;0.00
71794;PMS7003;59641;45.188;5.712;2023-10-31T07:05:34;0.00;0.00;0.00
71794;PMS7003;59641;45.188;5.712;2023-10-31T07:08:00;0.00;0.00;0.00
71794;PMS7003;59641;45.188;5.712;2023-10-31T07:10:25;1.75;0.00;0.00
71794;PMS7003;59641;45.188;5.712;2023-10-31T07:12:50;0.00;0.00;0.00
71794;PMS7003;59641;45.188;5.712;2023-10-31T07:15:16;1.25;1.00;0.25
71794;PMS7003;59641;45.188;5.712;2023-10-31T07:17:41;1.50;0.00;0.00
71794;PMS7003;59641;45.188;5.712;2023-10-31T07:20:06;0.50;0.50;0.00
71794;PMS7003;59641;45.188;5.712;2023-10-31T07:22:32;1.00;1.00;0.00
71794;PMS7003;59641;45.188;5.712;2023-10-31T07:24:58;0.80;0.00;0.00
71794;PMS7003;59641;45.188;5.712;2023-10-31T07:27:24;0.20;0.00;0.00
71794;PMS7003;59641;45.188;5.712;2023-10-31T07:29:50;0.00;0.00;0.00
71794;PMS7003;59641;45.188;5.712;2023-10-31T07:32:15;1.00;1.00;0.00
71794;PMS7003;59641;45.188;5.712;2023-10-31T07:34:41;0.00;0.00;0.00
71794;PMS7003;59641;45.188;5.712;2023-10-31T07:37:09;0.20;0.00;0.00
71794;PMS7003;59641;45.188;5.712;2023-10-31T07:39:35;0.00;0.00;0.00
71794;PMS7003;59641;45.188;5.712;2023-10-31T07:42:00;0.00;0.00;0.00
71794;PMS7003;59641;45.188;5.712;2023-10-31T07:44:26;1.00;1.00;0.00
71794;PMS7003;59641;45.188;5.712;2023-10-31T07:46:51;1.00;0.00;0.00
71794;PMS7003;59641;45.188;5.712;2023-10-31T07:49:16;0.00;0.00;0.00
71794;PMS7003;59641;45.188;5.712;2023-10-31T07:51:42;0.00;0.00;0.00
71794;PMS7003;59641;45.188;5.712;2023-10-31T07:54:07;0.00;0.00;0.00
71794;PMS7003;59641;45.188;5.712;2023-10-31T07:56:34;0.00;0.00;0.00
71794;PMS7003;59641;45.188;5.712;2023-10-31T07:59:01;0.40;0.00;0.00
71794;PMS7003;59641;45.188;5.712;2023-10-31T08:01:26;0.00;0.00;0.00
71794;PMS7003;59641;45.188;5.712;2023-10-31T08:03:52;0.00;0.00;0.00
71794;PMS7003;59641;45.188;5.712;2023-10-31T08:06:17;1.50;0.00;0.00
71794;PMS7003;59641;45.188;5.712;2023-10-31T08:08:43;0.25;0.00;0.00
71794;PMS7003;59641;45.188;5.712;2023-10-31T08:11:08;0.00;0.00;0.00
71794;PMS7003;59641;45.188;5.712;2023-10-31T08:13:35;0.00;0.00;0.00
71794;PMS7003;59641;45.188;5.712;2023-10-31T08:16:01;0.00;0.00;0.00
71794;PMS7003;59641;45.188;5.712;2023-10-31T08:18:27;0.00;0.00;0.00
71794;PMS7003;59641;45.188;5.712;2023-10-31T08:20:52;0.50;0.00;0.00
71794;PMS7003;59641;45.188;5.712;2023-10-31T08:23:17;0.00;0.00;0.00
71794;PMS7003;59641;45.188;5.712;2023-10-31T08:25:43;1.00;0.00;0.00
71794;PMS7003;59641;45.188;5.712;2023-10-31T08:28:09;0.50;0.50;0.00
71794;PMS7003;59641;45.188;5.712;2023-10-31T08:30:34;0.00;0.00;0.00
71794;PMS7003;59641;45.188;5.712;2023-10-31T08:33:00;0.00;0.00;0.00
71794;PMS7003;59641;45.188;5.712;2023-10-31T08:35:25;0.00;0.00;0.00
71794;PMS7003;59641;45.188;5.712;2023-10-31T08:37:51;0.75;0.00;0.00
71794;PMS7003;59641;45.188;5.712;2023-10-31T08:40:16;1.00;0.00;0.00
71794;PMS7003;59641;45.188;5.712;2023-10-31T08:42:41;0.00;0.00;0.00
71794;PMS7003;59641;45.188;5.712;2023-10-31T08:45:08;0.00;0.00;0.00
71794;PMS7003;59641;45.188;5.712;2023-10-31T08:47:34;0.00;0.00;0.00
71794;PMS7003;59641;45.188;5.712;2023-10-31T08:49:59;0.00;0.00;0.00
71794;PMS7003;59641;45.188;5.712;2023-10-31T08:52:25;0.00;0.00;0.00
71794;PMS7003;59641;45.188;5.712;2023-10-31T08:54:50;0.00;0.00;0.00
71794;PMS7003;59641;45.188;5.712;2023-10-31T08:57:15;0.50;0.50;0.00
71794;PMS7003;59641;45.188;5.712;2023-10-31T08:59:41;1.00;0.00;0.00
71794;PMS7003;59641;45.188;5.712;2023-10-31T09:02:06;0.00;0.00;0.00
71794;PMS7003;59641;45.188;5.712;2023-10-31T09:04:31;1.00;1.00;0.75
71794;PMS7003;59641;45.188;5.712;2023-10-31T09:06:57;1.25;1.25;1.00
71794;PMS7003;59641;45.188;5.712;2023-10-31T09:09:22;2.00;1.00;0.75
71794;PMS7003;59641;45.188;5.712;2023-10-31T09:11:47;2.00;1.75;1.00
71794;PMS7003;59641;45.188;5.712;2023-10-31T09:14:13;1.50;1.00;1.00
71794;PMS7003;59641;45.188;5.712;2023-10-31T09:16:38;2.00;2.00;1.00
71794;PMS7003;59641;45.188;5.712;2023-10-31T09:19:04;0.75;0.75;0.00
71794;PMS7003;59641;45.188;5.712;2023-10-31T09:21:29;1.75;1.75;0.00
71794;PMS7003;59641;45.188;5.712;2023-10-31T09:23:54;1.00;1.00;1.00
71794;PMS7003;59641;45.188;5.712;2023-10-31T09:26:20;2.25;2.00;1.00
71794;PMS7003;59641;45.188;5.712;2023-10-31T09:28:45;4.00;1.50;0.50
71794;PMS7003;59641;45.188;5.712;2023-10-31T09:31:17;3.00;3.00;2.20
71794;PMS7003;59641;45.188;5.712;2023-10-31T09:33:43;5.20;3.80;2.00
71794;PMS7003;59641;45.188;5.712;2023-10-31T09:36:10;2.20;2.20;1.00
71794;PMS7003;59641;45.188;5.712;2023-10-31T09:38:35;3.00;1.00;1.00
71794;PMS7003;59641;45.188;5.712;2023-10-31T09:41:00;1.00;1.00;1.00
71794;PMS7003;59641;45.188;5.712;2023-10-31T09:43:26;2.00;1.75;1.00
71794;PMS7003;59641;45.188;5.712;2023-10-31T09:45:52;3.75;2.00;1.00
71794;PMS7003;59641;45.188;5.712;2023-10-31T09:48:18;2.00;2.00;1.00
71794;PMS7003;59641;45.188;5.712;2023-10-31T09:50:45;2.20;1.20;0.40
71794;PMS7003;59641;45.188;5.712;2023-10-31T09:53:12;2.00;2.00;1.00
71794;PMS7003;59641;45.188;5.712;2023-10-31T09:55:39;1.00;1.00;1.00
71794;PMS7003;59641;45.188;5.712;2023-10-31T09:58:06;1.80;1.80;1.00
71794;PMS7003;59641;45.188;5.712;2023-10-31T10:00:31;1.75;1.75;0.50
71794;PMS7003;59641;45.188;5.712;2023-10-31T10:02:56;4.25;3.00;2.00
71794;PMS7003;59641;45.188;5.712;2023-10-31T10:05:22;4.60;3.40;1.60
71794;PMS7003;59641;45.188;5.712;2023-10-31T10:07:48;4.25;3.25;2.25
71794;PMS7003;59641;45.188;5.712;2023-10-31T10:10:15;3.80;3.80;2.00
71794;PMS7003;59641;45.188;5.712;2023-10-31T10:12:41;2.25;2.25;1.75
71794;PMS7003;59641;45.188;5.712;2023-10-31T10:15:08;2.00;2.00;1.00
71794;PMS7003;59641;45.188;5.712;2023-10-31T10:17:33;1.00;1.00;1.00
71794;PMS7003;59641;45.188;5.712;2023-10-31T10:20:09;2.25;2.25;1.25
71794;PMS7003;59641;45.188;5.712;2023-10-31T10:22:36;1.40;1.40;1.00
71794;PMS7003;59641;45.188;5.712;2023-10-31T10:25:08;1.00;1.00;0.80
71794;PMS7003;59641;45.188;5.712;2023-10-31T10:27:43;3.60;3.40;1.80
71794;PMS7003;59641;45.188;5.712;2023-10-31T10:30:09;1.00;1.00;0.00
71794;PMS7003;59641;45.188;5.712;2023-10-31T10:32:35;0.60;0.60;0.00
71794;PMS7003;59641;45.188;5.712;2023-10-31T10:35:00;1.00;1.00;0.00
71794;PMS7003;59641;45.188;5.712;2023-10-31T10:37:26;1.50;1.00;0.50
71794;PMS7003;59641;45.188;5.712;2023-10-31T10:39:53;1.80;1.80;1.00
71794;PMS7003;59641;45.188;5.712;2023-10-31T10:42:25;5.20;2.00;0.80
71794;PMS7003;59641;45.188;5.712;2023-10-31T10:44:58;1.40;1.40;1.00
71794;PMS7003;59641;45.188;5.712;2023-10-31T10:47:28;2.20;2.20;1.80
71794;PMS7003;59641;45.188;5.712;2023-10-31T10:49:56;4.60;4.60;3.40
71794;PMS7003;59641;45.188;5.712;2023-10-31T10:55:25;3.00;3.00;2.00
71794;PMS7003;59641;45.188;5.712;2023-10-31T11:00:21;3.00;2.40;1.00
71794;PMS7003;59641;45.188;5.712;2023-10-31T11:02:50;2.00;2.00;1.00
71794;PMS7003;59641;45.188;5.712;2023-10-31T11:05:17;1.00;1.00;0.00
71794;PMS7003;59641;45.188;5.712;2023-10-31T11:07:43;3.25;2.25;2.00
71794;PMS7003;59641;45.188;5.712;2023-10-31T11:10:09;1.00;1.00;0.00
71794;PMS7003;59641;45.188;5.712;2023-10-31T11:12:35;1.00;1.00;0.00
71794;PMS7003;59641;45.188;5.712;2023-10-31T11:15:02;0.20;0.00;0.00
71794;PMS7003;59641;45.188;5.712;2023-10-31T11:17:33;1.40;1.40;1.00
71794;PMS7003;59641;45.188;5.712;2023-10-31T11:20:00;0.20;0.20;0.00
71794;PMS7003;59641;45.188;5.712;2023-10-31T11:22:43;2.00;2.00;0.60
71794;PMS7003;59641;45.188;5.712;2023-10-31T11:25:19;3.00;3.00;2.00
71794;PMS7003;59641;45.188;5.712;2023-10-31T11:27:45;2.20;2.00;2.00
71794;PMS7003;59641;45.188;5.712;2023-10-31T11:32:54;2.00;2.00;1.00
71794;PMS7003;59641;45.188;5.712;2023-10-31T11:35:21;2.00;2.00;1.00
71794;PMS7003;59641;45.188;5.712;2023-10-31T11:37:48;3.20;2.00;1.00
71794;PMS7003;59641;45.188;5.712;2023-10-31T11:40:19;5.60;2.60;2.00
71794;PMS7003;59641;45.188;5.712;2023-10-31T11:42:49;1.80;1.80;1.20
71794;PMS7003;59641;45.188;5.712;2023-10-31T11:45:40;2.00;2.00;1.00
71794;PMS7003;59641;45.188;5.712;2023-10-31T11:48:09;2.80;2.80;1.80
71794;PMS7003;59641;45.188;5.712;2023-10-31T11:50:36;1.00;1.00;1.00
71794;PMS7003;59641;45.188;5.712;2023-10-31T11:55:39;0.40;0.40;0.00
71794;PMS7003;59641;45.188;5.712;2023-10-31T12:00:38;0.00;0.00;0.00
71794;PMS7003;59641;45.188;5.712;2023-10-31T12:03:03;1.00;1.00;1.00
71794;PMS7003;59641;45.188;5.712;2023-10-31T12:05:29;1.25;0.00;0.00
71794;PMS7003;59641;45.188;5.712;2023-10-31T12:07:55;0.00;0.00;0.00
71794;PMS7003;59641;45.188;5.712;2023-10-31T12:10:24;0.00;0.00;0.00
71794;PMS7003;59641;45.188;5.712;2023-10-31T12:12:52;0.00;0.00;0.00
71794;PMS7003;59641;45.188;5.712;2023-10-31T12:15:18;0.00;0.00;0.00
71794;PMS7003;59641;45.188;5.712;2023-10-31T12:17:43;1.00;1.00;0.00
71794;PMS7003;59641;45.188;5.712;2023-10-31T12:20:09;0.00;0.00;0.00
71794;PMS7003;59641;45.188;5.712;2023-10-31T12:22:35;0.00;0.00;0.00
71794;PMS7003;59641;45.188;5.712;2023-10-31T12:25:04;1.00;1.00;1.00
71794;PMS7003;59641;45.188;5.712;2023-10-31T12:27:47;1.00;1.00;0.00
71794;PMS7003;59641;45.188;5.712;2023-10-31T12:30:18;0.00;0.00;0.00
71794;PMS7003;59641;45.188;5.712;2023-10-31T12:32:45;0.80;0.00;0.00
71794;PMS7003;59641;45.188;5.712;2023-10-31T12:35:20;0.20;0.20;0.00
71794;PMS7003;59641;45.188;5.712;2023-10-31T12:37:47;0.00;0.00;0.00
71794;PMS7003;59641;45.188;5.712;2023-10-31T12:40:15;1.40;0.00;0.00
71794;PMS7003;59641;45.188;5.712;2023-10-31T12:42:43;0.00;0.00;0.00
71794;PMS7003;59641;45.188;5.712;2023-10-31T12:45:10;0.00;0.00;0.00
71794;PMS7003;59641;45.188;5.712;2023-10-31T12:47:36;0.00;0.00;0.00
71794;PMS7003;59641;45.188;5.712;2023-10-31T12:52:47;0.40;0.40;0.00
71794;PMS7003;59641;45.188;5.712;2023-10-31T12:55:17;0.00;0.00;0.00
71794;PMS7003;59641;45.188;5.712;2023-10-31T12:57:46;0.00;0.00;0.00
71794;PMS7003;59641;45.188;5.712;2023-10-31T13:00:12;0.00;0.00;0.00
71794;PMS7003;59641;45.188;5.712;2023-10-31T13:02:39;1.00;1.00;0.00
71794;PMS7003;59641;45.188;5.712;2023-10-31T13:05:12;1.20;0.00;0.00
71794;PMS7003;59641;45.188;5.712;2023-10-31T13:07:39;1.00;0.00;0.00
71794;PMS7003;59641;45.188;5.712;2023-10-31T13:10:05;0.60;0.00;0.00
71794;PMS7003;59641;45.188;5.712;2023-10-31T13:12:33;0.00;0.00;0.00
71794;PMS7003;59641;45.188;5.712;2023-10-31T13:14:59;0.00;0.00;0.00
71794;PMS7003;59641;45.188;5.712;2023-10-31T13:17:24;0.00;0.00;0.00
71794;PMS7003;59641;45.188;5.712;2023-10-31T13:19:50;0.00;0.00;0.00
71794;PMS7003;59641;45.188;5.712;2023-10-31T13:22:15;0.00;0.00;0.00
71794;PMS7003;59641;45.188;5.712;2023-10-31T13:24:40;0.00;0.00;0.00
71794;PMS7003;59641;45.188;5.712;2023-10-31T13:27:07;0.80;0.00;0.00
71794;PMS7003;59641;45.188;5.712;2023-10-31T13:29:33;0.00;0.00;0.00
71794;PMS7003;59641;45.188;5.712;2023-10-31T13:31:58;0.00;0.00;0.00
71794;PMS7003;59641;45.188;5.712;2023-10-31T13:34:24;0.00;0.00;0.00
71794;PMS7003;59641;45.188;5.712;2023-10-31T13:36:49;0.00;0.00;0.00
71794;PMS7003;59641;45.188;5.712;2023-10-31T13:39:14;1.00;0.00;0.00
71794;PMS7003;59641;45.188;5.712;2023-10-31T13:41:40;0.00;0.00;0.00
71794;PMS7003;59641;45.188;5.712;2023-10-31T13:44:05;0.00;0.00;0.00
71794;PMS7003;59641;45.188;5.712;2023-10-31T13:46:31;1.00;0.00;0.00
71794;PMS7003;59641;45.188;5.712;2023-10-31T13:48:56;0.00;0.00;0.00
71794;PMS7003;59641;45.188;5.712;2023-10-31T13:51:22;0.00;0.00;0.00
71794;PMS7003;59641;45.188;5.712;2023-10-31T13:53:47;0.00;0.00;0.00
71794;PMS7003;59641;45.188;5.712;2023-10-31T13:56:15;0.20;0.00;0.00
71794;PMS7003;59641;45.188;5.712;2023-10-31T13:58:40;0.00;0.00;0.00
71794;PMS7003;59641;45.188;5.712;2023-10-31T14:01:05;0.50;0.50;0.00
71794;PMS7003;59641;45.188;5.712;2023-10-31T14:03:31;0.50;0.00;0.00
71794;PMS7003;59641;45.188;5.712;2023-10-31T14:05:56;0.00;0.00;0.00
71794;PMS7003;59641;45.188;5.712;2023-10-31T14:08:22;0.00;0.00;0.00
71794;PMS7003;59641;45.188;5.712;2023-10-31T14:10:47;0.00;0.00;0.00
71794;PMS7003;59641;45.188;5.712;2023-10-31T14:13:13;0.00;0.00;0.00
71794;PMS7003;59641;45.188;5.712;2023-10-31T14:15:38;0.00;0.00;0.00
71794;PMS7003;59641;45.188;5.712;2023-10-31T14:18:04;1.00;1.00;0.00
71794;PMS7003;59641;45.188;5.712;2023-10-31T14:20:29;0.75;0.75;0.00
71794;PMS7003;59641;45.188;5.712;2023-10-31T14:22:54;1.00;0.00;0.00
71794;PMS7003;59641;45.188;5.712;2023-10-31T14:25:20;0.00;0.00;0.00
71794;PMS7003;59641;45.188;5.712;2023-10-31T14:27:45;0.00;0.00;0.00
71794;PMS7003;59641;45.188;5.712;2023-10-31T14:30:11;0.00;0.00;0.00
71794;PMS7003;59641;45.188;5.712;2023-10-31T14:32:37;3.40;2.80;1.00